sensor_id;sensor_type;location;lat;lon;timestamp;temperature;humidity
26212;DHT22;13951;49.516;6.094;2023-07-20T00:00:13;17.70;99.90
26212;DHT22;13951;49.516;6.094;2023-07-20T00:03:13;17.70;99.90
26212;DHT22;13951;49.516;6.094;2023-07-20T00:05:50;17.60;99.90
26212;DHT22;13951;49.516;6.094;2023-07-20T00:08:23;17.60;99.90
26212;DHT22;13951;49.516;6.094;2023-07-20T00:10:57;17.60;99.90
26212;DHT22;13951;49.516;6.094;2023-07-20T00:13:30;17.70;99.90
26212;DHT22;13951;49.516;6.094;2023-07-20T00:16:03;17.60;99.90
26212;DHT22;13951;49.516;6.094;2023-07-20T00:18:37;17.60;99.90
26212;DHT22;13951;49.516;6.094;2023-07-20T00:21:10;17.60;99.90
26212;DHT22;13951;49.516;6.094;2023-07-20T00:23:43;17.60;99.90
26212;DHT22;13951;49.516;6.094;2023-07-20T00:26:16;17.50;99.90
26212;DHT22;13951;49.516;6.094;2023-07-20T00:28:51;17.50;99.90
26212;DHT22;13951;49.516;6.094;2023-07-20T00:31:25;17.50;99.90
26212;DHT22;13951;49.516;6.094;2023-07-20T00:33:59;17.50;99.90
26212;DHT22;13951;49.516;6.094;2023-07-20T00:36:33;17.50;99.90
26212;DHT22;13951;49.516;6.094;2023-07-20T00:39:07;17.40;99.90
26212;DHT22;13951;49.516;6.094;2023-07-20T00:41:41;17.40;99.90
26212;DHT22;13951;49.516;6.094;2023-07-20T00:44:15;17.30;99.90
26212;DHT22;13951;49.516;6.094;2023-07-20T00:46:48;17.30;99.90
26212;DHT22;13951;49.516;6.094;2023-07-20T00:49:22;17.20;99.90
26212;DHT22;13951;49.516;6.094;2023-07-20T00:51:55;17.20;99.90
26212;DHT22;13951;49.516;6.094;2023-07-20T00:54:29;17.20;99.90
26212;DHT22;13951;49.516;6.094;2023-07-20T00:57:04;17.30;99.90
26212;DHT22;13951;49.516;6.094;2023-07-20T00:59:37;17.20;99.90
26212;DHT22;13951;49.516;6.094;2023-07-20T01:02:10;17.20;99.90
26212;DHT22;13951;49.516;6.094;2023-07-20T01:04:45;17.10;99.90
26212;DHT22;13951;49.516;6.094;2023-07-20T01:07:31;17.10;99.90
26212;DHT22;13951;49.516;6.094;2023-07-20T01:10:35;17.10;99.90
26212;DHT22;13951;49.516;6.094;2023-07-20T01:13:12;17.10;99.90
26212;DHT22;13951;49.516;6.094;2023-07-20T01:15:53;17.00;99.90
26212;DHT22;13951;49.516;6.094;2023-07-20T01:18:26;17.00;99.90
26212;DHT22;13951;49.516;6.094;2023-07-20T01:21:05;17.00;99.90
26212;DHT22;13951;49.516;6.094;2023-07-20T01:29:36;17.00;99.90
26212;DHT22;13951;49.516;6.094;2023-07-20T01:32:17;17.00;99.90
26212;DHT22;13951;49.516;6.094;2023-07-20T01:34:53;17.00;99.90
26212;DHT22;13951;49.516;6.094;2023-07-20T01:37:27;17.00;99.90
26212;DHT22;13951;49.516;6.094;2023-07-20T01:40:03;17.00;99.90
26212;DHT22;13951;49.516;6.094;2023-07-20T01:42:36;16.90;99.90
26212;DHT22;13951;49.516;6.094;2023-07-20T01:45:09;16.90;99.90
26212;DHT22;13951;49.516;6.094;2023-07-20T01:47:43;16.80;99.90
26212;DHT22;13951;49.516;6.094;2023-07-20T01:50:16;16.80;99.90
26212;DHT22;13951;49.516;6.094;2023-07-20T01:52:50;16.80;99.90
26212;DHT22;13951;49.516;6.094;2023-07-20T01:55:23;16.80;99.90
26212;DHT22;13951;49.516;6.094;2023-07-20T01:57:56;16.90;99.90
26212;DHT22;13951;49.516;6.094;2023-07-20T02:00:30;16.90;99.90
26212;DHT22;13951;49.516;6.094;2023-07-20T02:03:03;16.90;99.90
26212;DHT22;13951;49.516;6.094;2023-07-20T02:05:37;16.90;99.90
26212;DHT22;13951;49.516;6.094;2023-07-20T02:08:10;16.90;99.90
26212;DHT22;13951;49.516;6.094;2023-07-20T02:10:48;16.80;99.90
26212;DHT22;13951;49.516;6.094;2023-07-20T02:13:23;16.90;99.90
26212;DHT22;13951;49.516;6.094;2023-07-20T02:15:56;16.90;99.90
26212;DHT22;13951;49.516;6.094;2023-07-20T02:18:31;16.90;99.90
26212;DHT22;13951;49.516;6.094;2023-07-20T02:21:04;16.80;99.90
26212;DHT22;13951;49.516;6.094;2023-07-20T02:23:37;16.80;99.90
26212;DHT22;13951;49.516;6.094;2023-07-20T02:26:11;16.80;99.90
26212;DHT22;13951;49.516;6.094;2023-07-20T02:28:44;16.70;99.90
26212;DHT22;13951;49.516;6.094;2023-07-20T02:31:18;16.70;99.90
26212;DHT22;13951;49.516;6.094;2023-07-20T02:33:51;16.60;99.90
26212;DHT22;13951;49.516;6.094;2023-07-20T02:36:24;16.60;99.90
26212;DHT22;13951;49.516;6.094;2023-07-20T02:38:57;16.50;99.90
26212;DHT22;13951;49.516;6.094;2023-07-20T02:41:33;16.50;99.90
26212;DHT22;13951;49.516;6.094;2023-07-20T02:44:06;16.50;99.90
26212;DHT22;13951;49.516;6.094;2023-07-20T02:46:40;16.40;99.90
26212;DHT22;13951;49.516;6.094;2023-07-20T02:49:13;16.50;99.90
26212;DHT22;13951;49.516;6.094;2023-07-20T02:51:46;16.40;99.90
26212;DHT22;13951;49.516;6.094;2023-07-20T02:54:21;16.40;99.90
26212;DHT22;13951;49.516;6.094;2023-07-20T02:56:54;16.40;99.90
26212;DHT22;13951;49.516;6.094;2023-07-20T02:59:28;16.40;99.90
26212;DHT22;13951;49.516;6.094;2023-07-20T03:02:02;16.40;99.90
26212;DHT22;13951;49.516;6.094;2023-07-20T03:04:36;16.40;99.90
26212;DHT22;13951;49.516;6.094;2023-07-20T03:07:12;16.40;99.90
26212;DHT22;13951;49.516;6.094;2023-07-20T03:09:45;16.40;99.90
26212;DHT22;13951;49.516;6.094;2023-07-20T03:12:19;16.30;99.90
26212;DHT22;13951;49.516;6.094;2023-07-20T03:14:52;16.40;99.90
26212;DHT22;13951;49.516;6.094;2023-07-20T03:17:25;16.30;99.90
26212;DHT22;13951;49.516;6.094;2023-07-20T03:19:59;16.30;99.90
26212;DHT22;13951;49.516;6.094;2023-07-20T03:22:35;16.20;99.90
26212;DHT22;13951;49.516;6.094;2023-07-20T03:25:08;16.20;99.90
26212;DHT22;13951;49.516;6.094;2023-07-20T03:27:42;16.20;99.90
26212;DHT22;13951;49.516;6.094;2023-07-20T03:30:16;16.20;99.90
26212;DHT22;13951;49.516;6.094;2023-07-20T03:32:49;16.20;99.90
26212;DHT22;13951;49.516;6.094;2023-07-20T03:35:23;16.10;99.90
26212;DHT22;13951;49.516;6.094;2023-07-20T03:37:56;16.10;99.90
26212;DHT22;13951;49.516;6.094;2023-07-20T03:40:30;16.20;99.90
26212;DHT22;13951;49.516;6.094;2023-07-20T03:43:03;16.10;99.90
26212;DHT22;13951;49.516;6.094;2023-07-20T03:45:37;16.10;99.90
26212;DHT22;13951;49.516;6.094;2023-07-20T03:48:10;16.20;99.90
26212;DHT22;13951;49.516;6.094;2023-07-20T03:50:45;16.10;99.90
26212;DHT22;13951;49.516;6.094;2023-07-20T03:53:19;16.10;99.90
26212;DHT22;13951;49.516;6.094;2023-07-20T03:55:53;16.10;99.90
26212;DHT22;13951;49.516;6.094;2023-07-20T03:58:26;16.10;99.90
26212;DHT22;13951;49.516;6.094;2023-07-20T04:01:00;16.10;99.90
26212;DHT22;13951;49.516;6.094;2023-07-20T04:03:34;16.10;99.90
26212;DHT22;13951;49.516;6.094;2023-07-20T04:06:08;16.10;99.90
26212;DHT22;13951;49.516;6.094;2023-07-20T04:08:43;16.10;99.90
26212;DHT22;13951;49.516;6.094;2023-07-20T04:11:17;16.10;99.90
26212;DHT22;13951;49.516;6.094;2023-07-20T04:13:50;16.10;99.90
26212;DHT22;13951;49.516;6.094;2023-07-20T04:16:23;16.10;99.90
26212;DHT22;13951;49.516;6.094;2023-07-20T04:18:57;16.10;99.90
26212;DHT22;13951;49.516;6.094;2023-07-20T04:21:30;16.10;99.90
26212;DHT22;13951;49.516;6.094;2023-07-20T04:24:04;16.10;99.90
26212;DHT22;13951;49.516;6.094;2023-07-20T04:26:38;16.10;99.90
26212;DHT22;13951;49.516;6.094;2023-07-20T04:29:11;16.20;99.90
26212;DHT22;13951;49.516;6.094;2023-07-20T04:31:47;16.20;99.90
26212;DHT22;13951;49.516;6.094;2023-07-20T04:34:21;16.20;99.90
26212;DHT22;13951;49.516;6.094;2023-07-20T04:36:55;16.20;99.90
26212;DHT22;13951;49.516;6.094;2023-07-20T04:39:29;16.20;99.90
26212;DHT22;13951;49.516;6.094;2023-07-20T04:42:11;16.20;99.90
26212;DHT22;13951;49.516;6.094;2023-07-20T04:44:45;16.30;99.90
26212;DHT22;13951;49.516;6.094;2023-07-20T04:47:18;16.30;99.90
26212;DHT22;13951;49.516;6.094;2023-07-20T04:49:52;16.30;99.90
26212;DHT22;13951;49.516;6.094;2023-07-20T04:52:26;16.40;99.90
26212;DHT22;13951;49.516;6.094;2023-07-20T04:55:15;16.40;99.90
26212;DHT22;13951;49.516;6.094;2023-07-20T04:57:48;16.50;99.90
26212;DHT22;13951;49.516;6.094;2023-07-20T05:00:21;16.50;99.90
26212;DHT22;13951;49.516;6.094;2023-07-20T05:02:55;16.50;99.90
26212;DHT22;13951;49.516;6.094;2023-07-20T05:05:32;16.60;99.90
26212;DHT22;13951;49.516;6.094;2023-07-20T05:08:05;16.60;99.90
26212;DHT22;13951;49.516;6.094;2023-07-20T05:10:38;16.60;99.90
26212;DHT22;13951;49.516;6.094;2023-07-20T05:13:12;16.80;99.90
26212;DHT22;13951;49.516;6.094;2023-07-20T05:15:50;16.80;99.90
26212;DHT22;13951;49.516;6.094;2023-07-20T05:18:24;16.80;99.90
26212;DHT22;13951;49.516;6.094;2023-07-20T05:20:57;16.90;99.90
26212;DHT22;13951;49.516;6.094;2023-07-20T05:23:31;16.90;99.90
26212;DHT22;13951;49.516;6.094;2023-07-20T05:26:04;17.00;99.90
26212;DHT22;13951;49.516;6.094;2023-07-20T05:28:37;17.10;99.90
26212;DHT22;13951;49.516;6.094;2023-07-20T05:31:10;17.20;99.90
26212;DHT22;13951;49.516;6.094;2023-07-20T05:33:44;17.30;99.90
26212;DHT22;13951;49.516;6.094;2023-07-20T05:36:29;17.40;99.90
26212;DHT22;13951;49.516;6.094;2023-07-20T05:39:03;17.60;99.90
26212;DHT22;13951;49.516;6.094;2023-07-20T05:41:37;17.80;99.90
26212;DHT22;13951;49.516;6.094;2023-07-20T05:44:10;18.00;99.90
26212;DHT22;13951;49.516;6.094;2023-07-20T05:46:43;18.10;99.90
26212;DHT22;13951;49.516;6.094;2023-07-20T05:49:29;18.20;99.90
26212;DHT22;13951;49.516;6.094;2023-07-20T05:52:02;18.50;99.90
26212;DHT22;13951;49.516;6.094;2023-07-20T05:54:35;18.60;99.90
26212;DHT22;13951;49.516;6.094;2023-07-20T05:57:09;18.70;99.90
26212;DHT22;13951;49.516;6.094;2023-07-20T05:59:42;18.90;99.90
26212;DHT22;13951;49.516;6.094;2023-07-20T06:02:17;19.10;99.90
26212;DHT22;13951;49.516;6.094;2023-07-20T06:04:50;19.20;99.90
26212;DHT22;13951;49.516;6.094;2023-07-20T06:07:23;19.40;99.90
26212;DHT22;13951;49.516;6.094;2023-07-20T06:09:56;19.50;99.90
26212;DHT22;13951;49.516;6.094;2023-07-20T06:12:29;19.70;99.90
26212;DHT22;13951;49.516;6.094;2023-07-20T06:15:03;19.70;99.90
26212;DHT22;13951;49.516;6.094;2023-07-20T06:17:37;19.70;99.90
26212;DHT22;13951;49.516;6.094;2023-07-20T06:20:12;19.70;99.90
26212;DHT22;13951;49.516;6.094;2023-07-20T06:22:45;19.80;99.90
26212;DHT22;13951;49.516;6.094;2023-07-20T06:25:18;19.80;99.90
26212;DHT22;13951;49.516;6.094;2023-07-20T06:27:52;19.80;99.90
26212;DHT22;13951;49.516;6.094;2023-07-20T06:30:25;19.80;99.90
26212;DHT22;13951;49.516;6.094;2023-07-20T06:32:58;19.90;99.90
26212;DHT22;13951;49.516;6.094;2023-07-20T06:35:34;20.00;99.90
26212;DHT22;13951;49.516;6.094;2023-07-20T06:38:07;20.00;99.90
26212;DHT22;13951;49.516;6.094;2023-07-20T06:40:45;20.10;99.90
26212;DHT22;13951;49.516;6.094;2023-07-20T06:43:18;20.10;99.90
26212;DHT22;13951;49.516;6.094;2023-07-20T06:45:54;20.20;99.90
26212;DHT22;13951;49.516;6.094;2023-07-20T06:48:28;20.20;99.90
26212;DHT22;13951;49.516;6.094;2023-07-20T06:51:02;20.30;99.90
26212;DHT22;13951;49.516;6.094;2023-07-20T06:53:36;20.30;99.90
26212;DHT22;13951;49.516;6.094;2023-07-20T06:56:10;20.40;99.90
26212;DHT22;13951;49.516;6.094;2023-07-20T06:58:44;20.40;99.90
26212;DHT22;13951;49.516;6.094;2023-07-20T07:01:17;20.40;99.90
26212;DHT22;13951;49.516;6.094;2023-07-20T07:03:50;20.20;99.90
26212;DHT22;13951;49.516;6.094;2023-07-20T07:06:28;20.20;99.90
26212;DHT22;13951;49.516;6.094;2023-07-20T07:09:02;20.20;99.90
26212;DHT22;13951;49.516;6.094;2023-07-20T07:11:35;20.00;99.90
26212;DHT22;13951;49.516;6.094;2023-07-20T07:14:09;19.90;99.90
26212;DHT22;13951;49.516;6.094;2023-07-20T07:16:43;19.90;99.90
26212;DHT22;13951;49.516;6.094;2023-07-20T07:19:16;19.80;99.90
26212;DHT22;13951;49.516;6.094;2023-07-20T07:21:49;19.70;99.90
26212;DHT22;13951;49.516;6.094;2023-07-20T07:24:22;19.60;99.90
26212;DHT22;13951;49.516;6.094;2023-07-20T07:26:55;19.70;99.90
26212;DHT22;13951;49.516;6.094;2023-07-20T07:29:28;19.70;99.90
26212;DHT22;13951;49.516;6.094;2023-07-20T07:32:02;19.90;99.90
26212;DHT22;13951;49.516;6.094;2023-07-20T07:34:35;19.90;99.90
26212;DHT22;13951;49.516;6.094;2023-07-20T07:37:08;20.00;99.90
26212;DHT22;13951;49.516;6.094;2023-07-20T07:39:42;20.10;99.90
26212;DHT22;13951;49.516;6.094;2023-07-20T07:42:15;20.10;99.90
26212;DHT22;13951;49.516;6.094;2023-07-20T07:44:48;20.00;99.90
26212;DHT22;13951;49.516;6.094;2023-07-20T07:47:21;20.10;99.90
26212;DHT22;13951;49.516;6.094;2023-07-20T07:49:54;20.20;99.90
26212;DHT22;13951;49.516;6.094;2023-07-20T07:52:27;20.10;99.90
26212;DHT22;13951;49.516;6.094;2023-07-20T07:55:02;20.20;99.90
26212;DHT22;13951;49.516;6.094;2023-07-20T07:57:36;20.30;99.90
26212;DHT22;13951;49.516;6.094;2023-07-20T08:00:10;20.30;99.90
26212;DHT22;13951;49.516;6.094;2023-07-20T08:02:47;20.40;99.90
26212;DHT22;13951;49.516;6.094;2023-07-20T08:05:23;20.60;99.90
26212;DHT22;13951;49.516;6.094;2023-07-20T08:07:56;20.80;99.90
26212;DHT22;13951;49.516;6.094;2023-07-20T08:10:30;20.90;99.90
26212;DHT22;13951;49.516;6.094;2023-07-20T08:13:04;21.10;99.90
26212;DHT22;13951;49.516;6.094;2023-07-20T08:15:37;21.20;99.90
26212;DHT22;13951;49.516;6.094;2023-07-20T08:18:10;21.40;99.90
26212;DHT22;13951;49.516;6.094;2023-07-20T08:20:44;21.40;99.90
26212;DHT22;13951;49.516;6.094;2023-07-20T08:23:17;21.40;99.90
26212;DHT22;13951;49.516;6.094;2023-07-20T08:25:50;21.40;99.90
26212;DHT22;13951;49.516;6.094;2023-07-20T08:28:23;21.40;99.90
26212;DHT22;13951;49.516;6.094;2023-07-20T08:30:56;21.40;99.90
26212;DHT22;13951;49.516;6.094;2023-07-20T08:33:30;21.50;99.90
26212;DHT22;13951;49.516;6.094;2023-07-20T08:36:06;21.60;99.90
26212;DHT22;13951;49.516;6.094;2023-07-20T08:38:45;21.70;99.90
26212;DHT22;13951;49.516;6.094;2023-07-20T08:41:18;21.80;99.90
26212;DHT22;13951;49.516;6.094;2023-07-20T08:43:54;21.90;99.90
26212;DHT22;13951;49.516;6.094;2023-07-20T08:46:29;22.10;99.90
26212;DHT22;13951;49.516;6.094;2023-07-20T08:49:03;22.20;99.90
26212;DHT22;13951;49.516;6.094;2023-07-20T08:51:37;22.30;99.90
26212;DHT22;13951;49.516;6.094;2023-07-20T08:54:12;22.40;99.90
26212;DHT22;13951;49.516;6.094;2023-07-20T08:56:46;22.50;99.90
26212;DHT22;13951;49.516;6.094;2023-07-20T08:59:20;22.70;99.90
26212;DHT22;13951;49.516;6.094;2023-07-20T09:02:00;22.60;99.90
26212;DHT22;13951;49.516;6.094;2023-07-20T09:04:34;22.70;99.90
26212;DHT22;13951;49.516;6.094;2023-07-20T09:07:07;22.60;99.90
26212;DHT22;13951;49.516;6.094;2023-07-20T09:09:42;22.70;99.90
26212;DHT22;13951;49.516;6.094;2023-07-20T09:12:15;22.80;99.90
26212;DHT22;13951;49.516;6.094;2023-07-20T09:14:49;22.90;99.90
26212;DHT22;13951;49.516;6.094;2023-07-20T09:17:25;23.00;99.90
26212;DHT22;13951;49.516;6.094;2023-07-20T09:20:03;23.10;99.90
26212;DHT22;13951;49.516;6.094;2023-07-20T09:22:42;23.10;99.90
26212;DHT22;13951;49.516;6.094;2023-07-20T09:25:19;23.30;99.90
26212;DHT22;13951;49.516;6.094;2023-07-20T09:28:02;23.40;99.90
26212;DHT22;13951;49.516;6.094;2023-07-20T09:30:37;23.50;99.90
26212;DHT22;13951;49.516;6.094;2023-07-20T09:33:18;23.50;99.90
26212;DHT22;13951;49.516;6.094;2023-07-20T09:36:02;23.70;99.90
26212;DHT22;13951;49.516;6.094;2023-07-20T09:38:55;23.70;99.90
26212;DHT22;13951;49.516;6.094;2023-07-20T09:41:41;23.90;99.90
26212;DHT22;13951;49.516;6.094;2023-07-20T09:44:17;23.90;99.90
26212;DHT22;13951;49.516;6.094;2023-07-20T09:46:54;24.00;99.90
26212;DHT22;13951;49.516;6.094;2023-07-20T09:49:37;23.90;99.90
26212;DHT22;13951;49.516;6.094;2023-07-20T09:52:38;24.00;99.90
26212;DHT22;13951;49.516;6.094;2023-07-20T09:55:16;24.00;99.90
26212;DHT22;13951;49.516;6.094;2023-07-20T09:57:49;24.20;99.90
26212;DHT22;13951;49.516;6.094;2023-07-20T10:00:23;24.10;99.90
26212;DHT22;13951;49.516;6.094;2023-07-20T10:03:02;24.30;99.90
26212;DHT22;13951;49.516;6.094;2023-07-20T10:12:09;24.90;99.90
26212;DHT22;13951;49.516;6.094;2023-07-20T10:14:57;25.10;99.90
26212;DHT22;13951;49.516;6.094;2023-07-20T10:17:37;25.30;99.90
26212;DHT22;13951;49.516;6.094;2023-07-20T10:20:12;25.50;99.90
26212;DHT22;13951;49.516;6.094;2023-07-20T10:22:47;25.40;99.70
26212;DHT22;13951;49.516;6.094;2023-07-20T10:25:23;25.50;99.70
26212;DHT22;13951;49.516;6.094;2023-07-20T10:27:57;25.50;99.40
26212;DHT22;13951;49.516;6.094;2023-07-20T10:30:32;25.50;99.90
26212;DHT22;13951;49.516;6.094;2023-07-20T10:33:06;25.50;99.00
26212;DHT22;13951;49.516;6.094;2023-07-20T10:36:02;25.60;99.20
26212;DHT22;13951;49.516;6.094;2023-07-20T10:38:52;25.70;99.80
26212;DHT22;13951;49.516;6.094;2023-07-20T10:41:35;25.70;99.20
26212;DHT22;13951;49.516;6.094;2023-07-20T10:44:09;25.70;98.00
26212;DHT22;13951;49.516;6.094;2023-07-20T10:46:46;25.90;98.50
26212;DHT22;13951;49.516;6.094;2023-07-20T10:49:20;26.10;97.90
26212;DHT22;13951;49.516;6.094;2023-07-20T10:52:00;26.40;97.10
26212;DHT22;13951;49.516;6.094;2023-07-20T10:54:47;26.60;97.00
26212;DHT22;13951;49.516;6.094;2023-07-20T10:57:30;26.70;96.20
26212;DHT22;13951;49.516;6.094;2023-07-20T11:00:09;26.80;96.30
26212;DHT22;13951;49.516;6.094;2023-07-20T11:02:48;27.00;95.60
26212;DHT22;13951;49.516;6.094;2023-07-20T11:05:38;27.10;95.50
26212;DHT22;13951;49.516;6.094;2023-07-20T11:08:12;27.20;95.40
26212;DHT22;13951;49.516;6.094;2023-07-20T11:11:31;27.20;94.40
26212;DHT22;13951;49.516;6.094;2023-07-20T11:14:09;27.30;94.50
26212;DHT22;13951;49.516;6.094;2023-07-20T11:16:47;27.40;94.30
26212;DHT22;13951;49.516;6.094;2023-07-20T11:19:25;27.50;93.90
26212;DHT22;13951;49.516;6.094;2023-07-20T11:22:04;27.60;94.00
26212;DHT22;13951;49.516;6.094;2023-07-20T11:24:40;27.70;93.20
26212;DHT22;13951;49.516;6.094;2023-07-20T11:27:13;27.70;92.70
26212;DHT22;13951;49.516;6.094;2023-07-20T11:29:47;27.70;92.00
26212;DHT22;13951;49.516;6.094;2023-07-20T11:32:21;27.60;92.00
26212;DHT22;13951;49.516;6.094;2023-07-20T11:34:54;27.50;91.80
26212;DHT22;13951;49.516;6.094;2023-07-20T11:37:27;27.60;91.60
26212;DHT22;13951;49.516;6.094;2023-07-20T11:40:01;27.80;90.80
26212;DHT22;13951;49.516;6.094;2023-07-20T11:42:35;27.90;90.60
26212;DHT22;13951;49.516;6.094;2023-07-20T11:45:11;28.00;90.90
26212;DHT22;13951;49.516;6.094;2023-07-20T11:47:44;28.00;89.70
26212;DHT22;13951;49.516;6.094;2023-07-20T11:50:18;27.80;89.00
26212;DHT22;13951;49.516;6.094;2023-07-20T11:52:52;27.80;87.40
26212;DHT22;13951;49.516;6.094;2023-07-20T11:55:25;27.90;86.20
26212;DHT22;13951;49.516;6.094;2023-07-20T11:58:05;28.00;86.30
26212;DHT22;13951;49.516;6.094;2023-07-20T12:00:39;27.90;86.40
26212;DHT22;13951;49.516;6.094;2023-07-20T12:03:13;27.60;85.40
26212;DHT22;13951;49.516;6.094;2023-07-20T12:05:46;27.40;87.30
26212;DHT22;13951;49.516;6.094;2023-07-20T12:08:27;27.50;87.40
26212;DHT22;13951;49.516;6.094;2023-07-20T12:11:00;27.50;86.50
26212;DHT22;13951;49.516;6.094;2023-07-20T12:13:37;27.60;86.60
26212;DHT22;13951;49.516;6.094;2023-07-20T12:16:12;27.70;85.80
26212;DHT22;13951;49.516;6.094;2023-07-20T12:18:46;27.70;86.20
26212;DHT22;13951;49.516;6.094;2023-07-20T12:21:19;27.80;84.30
26212;DHT22;13951;49.516;6.094;2023-07-20T12:23:52;27.80;82.30
26212;DHT22;13951;49.516;6.094;2023-07-20T12:26:28;27.50;82.90
26212;DHT22;13951;49.516;6.094;2023-07-20T12:29:02;27.20;83.40
26212;DHT22;13951;49.516;6.094;2023-07-20T12:31:36;26.90;84.60
26212;DHT22;13951;49.516;6.094;2023-07-20T12:34:10;26.70;84.40
26212;DHT22;13951;49.516;6.094;2023-07-20T12:36:44;26.50;85.20
26212;DHT22;13951;49.516;6.094;2023-07-20T12:39:17;26.40;86.80
26212;DHT22;13951;49.516;6.094;2023-07-20T12:41:51;26.30;88.50
26212;DHT22;13951;49.516;6.094;2023-07-20T12:44:24;26.30;86.50
26212;DHT22;13951;49.516;6.094;2023-07-20T12:46:57;26.30;89.10
26212;DHT22;13951;49.516;6.094;2023-07-20T12:49:30;26.30;88.40
26212;DHT22;13951;49.516;6.094;2023-07-20T12:52:04;26.30;88.00
26212;DHT22;13951;49.516;6.094;2023-07-20T12:54:37;26.20;88.10
26212;DHT22;13951;49.516;6.094;2023-07-20T12:57:10;26.10;88.90
26212;DHT22;13951;49.516;6.094;2023-07-20T12:59:45;26.00;87.90
26212;DHT22;13951;49.516;6.094;2023-07-20T13:02:18;25.90;85.80
26212;DHT22;13951;49.516;6.094;2023-07-20T13:04:51;25.80;88.30
26212;DHT22;13951;49.516;6.094;2023-07-20T13:07:31;25.80;87.30
26212;DHT22;13951;49.516;6.094;2023-07-20T13:10:08;25.80;87.20
26212;DHT22;13951;49.516;6.094;2023-07-20T13:12:42;25.70;87.70
26212;DHT22;13951;49.516;6.094;2023-07-20T13:15:15;25.70;87.10
26212;DHT22;13951;49.516;6.094;2023-07-20T13:17:50;25.60;88.40
26212;DHT22;13951;49.516;6.094;2023-07-20T13:20:25;25.60;88.10
26212;DHT22;13951;49.516;6.094;2023-07-20T13:22:59;25.60;89.50
26212;DHT22;13951;49.516;6.094;2023-07-20T13:25:32;25.50;89.30
26212;DHT22;13951;49.516;6.094;2023-07-20T13:28:05;25.40;88.20
26212;DHT22;13951;49.516;6.094;2023-07-20T13:30:38;25.40;89.30
26212;DHT22;13951;49.516;6.094;2023-07-20T13:33:31;25.40;88.00
26212;DHT22;13951;49.516;6.094;2023-07-20T13:36:11;25.40;89.00
26212;DHT22;13951;49.516;6.094;2023-07-20T13:38:44;25.30;87.00
26212;DHT22;13951;49.516;6.094;2023-07-20T13:41:17;25.20;85.20
26212;DHT22;13951;49.516;6.094;2023-07-20T13:43:51;25.20;87.30
26212;DHT22;13951;49.516;6.094;2023-07-20T13:46:25;25.20;88.40
26212;DHT22;13951;49.516;6.094;2023-07-20T13:49:01;25.20;88.00
26212;DHT22;13951;49.516;6.094;2023-07-20T13:51:34;25.20;88.00
26212;DHT22;13951;49.516;6.094;2023-07-20T13:54:08;25.20;86.10
26212;DHT22;13951;49.516;6.094;2023-07-20T13:56:44;25.20;85.60
26212;DHT22;13951;49.516;6.094;2023-07-20T13:59:18;25.20;86.20
26212;DHT22;13951;49.516;6.094;2023-07-20T14:01:52;25.20;87.10
26212;DHT22;13951;49.516;6.094;2023-07-20T14:04:45;25.10;86.70
26212;DHT22;13951;49.516;6.094;2023-07-20T14:07:18;25.10;84.50
26212;DHT22;13951;49.516;6.094;2023-07-20T14:09:52;25.10;83.40
26212;DHT22;13951;49.516;6.094;2023-07-20T14:12:28;25.10;85.50
26212;DHT22;13951;49.516;6.094;2023-07-20T14:15:01;25.10;84.40
26212;DHT22;13951;49.516;6.094;2023-07-20T14:17:35;25.10;82.90
26212;DHT22;13951;49.516;6.094;2023-07-20T14:20:11;25.10;85.90
26212;DHT22;13951;49.516;6.094;2023-07-20T14:22:47;25.10;85.00
26212;DHT22;13951;49.516;6.094;2023-07-20T14:25:23;25.20;83.50
26212;DHT22;13951;49.516;6.094;2023-07-20T14:27:56;25.30;81.50
26212;DHT22;13951;49.516;6.094;2023-07-20T14:30:30;25.30;83.30
26212;DHT22;13951;49.516;6.094;2023-07-20T14:33:03;25.30;81.60
26212;DHT22;13951;49.516;6.094;2023-07-20T14:35:36;25.30;82.30
26212;DHT22;13951;49.516;6.094;2023-07-20T14:38:09;25.30;81.80
26212;DHT22;13951;49.516;6.094;2023-07-20T14:40:42;25.30;83.00
26212;DHT22;13951;49.516;6.094;2023-07-20T14:43:16;25.40;82.70
26212;DHT22;13951;49.516;6.094;2023-07-20T14:45:49;25.30;82.80
26212;DHT22;13951;49.516;6.094;2023-07-20T14:48:22;25.30;83.00
26212;DHT22;13951;49.516;6.094;2023-07-20T14:50:55;25.30;84.20
26212;DHT22;13951;49.516;6.094;2023-07-20T14:53:36;25.20;82.70
26212;DHT22;13951;49.516;6.094;2023-07-20T14:56:10;25.10;80.60
26212;DHT22;13951;49.516;6.094;2023-07-20T14:58:43;25.10;83.10
26212;DHT22;13951;49.516;6.094;2023-07-20T15:01:16;25.00;82.10
26212;DHT22;13951;49.516;6.094;2023-07-20T15:03:49;25.00;83.80
26212;DHT22;13951;49.516;6.094;2023-07-20T15:06:27;24.90;84.70
26212;DHT22;13951;49.516;6.094;2023-07-20T15:09:03;24.80;84.40
26212;DHT22;13951;49.516;6.094;2023-07-20T15:11:36;24.80;85.70
26212;DHT22;13951;49.516;6.094;2023-07-20T15:14:10;24.80;84.20
26212;DHT22;13951;49.516;6.094;2023-07-20T15:16:43;24.80;82.90
26212;DHT22;13951;49.516;6.094;2023-07-20T15:19:20;24.80;83.30
26212;DHT22;13951;49.516;6.094;2023-07-20T15:21:54;24.80;82.70
26212;DHT22;13951;49.516;6.094;2023-07-20T15:24:28;24.80;83.80
26212;DHT22;13951;49.516;6.094;2023-07-20T15:27:01;24.80;80.80
26212;DHT22;13951;49.516;6.094;2023-07-20T15:29:36;24.80;81.20
26212;DHT22;13951;49.516;6.094;2023-07-20T15:32:09;24.70;81.00
26212;DHT22;13951;49.516;6.094;2023-07-20T15:34:42;24.80;81.50
26212;DHT22;13951;49.516;6.094;2023-07-20T15:37:19;24.80;81.50
26212;DHT22;13951;49.516;6.094;2023-07-20T15:39:52;24.80;80.20
26212;DHT22;13951;49.516;6.094;2023-07-20T15:42:27;24.70;80.10
26212;DHT22;13951;49.516;6.094;2023-07-20T15:45:03;24.70;81.50
26212;DHT22;13951;49.516;6.094;2023-07-20T15:47:36;24.70;81.10
26212;DHT22;13951;49.516;6.094;2023-07-20T15:50:10;24.70;81.80
26212;DHT22;13951;49.516;6.094;2023-07-20T15:52:45;24.70;80.20
26212;DHT22;13951;49.516;6.094;2023-07-20T15:55:19;24.70;79.90
26212;DHT22;13951;49.516;6.094;2023-07-20T15:57:52;24.60;81.00
26212;DHT22;13951;49.516;6.094;2023-07-20T16:00:25;24.60;81.70
26212;DHT22;13951;49.516;6.094;2023-07-20T16:02:59;24.60;80.30
26212;DHT22;13951;49.516;6.094;2023-07-20T16:05:32;24.60;81.40
26212;DHT22;13951;49.516;6.094;2023-07-20T16:08:05;24.60;81.20
26212;DHT22;13951;49.516;6.094;2023-07-20T16:10:39;24.70;81.30
26212;DHT22;13951;49.516;6.094;2023-07-20T16:13:14;24.70;79.60
26212;DHT22;13951;49.516;6.094;2023-07-20T16:15:49;24.70;80.00
26212;DHT22;13951;49.516;6.094;2023-07-20T16:18:26;24.70;80.50
26212;DHT22;13951;49.516;6.094;2023-07-20T16:20:59;24.70;81.30
26212;DHT22;13951;49.516;6.094;2023-07-20T16:23:32;24.70;80.10
26212;DHT22;13951;49.516;6.094;2023-07-20T16:26:06;24.70;80.40
26212;DHT22;13951;49.516;6.094;2023-07-20T16:28:40;24.70;81.10
26212;DHT22;13951;49.516;6.094;2023-07-20T16:31:15;24.70;80.40